Donnes mto: Actuelle mercredi, 22/05/2019 10:45
Date Horaire Temp. E. Hum. E. P.atmo. Pluie Vent Direction Direction Ensoleilleme Solaire P. de rose Temp au vent Rafales
22/05/2019 10:45 14,3 C 78 % 1019,1 hPa 0,0 l/m 0,0 km/h (0 Bft) S-SO 201 60 min 661 W/m 10,5 C 14,3 C 1,6 km/h (1 Bft)
22/05/2019 09:45 11,7 C 49 % 1019,4 hPa 0,0 l/m 0,0 km/h (0 Bft) SO 216 40 min 468 W/m 1,3 C 11,7 C 1,6 km/h (1 Bft)
22/05/2019 08:45 10,1 C 30 % 1019,3 hPa 0,0 l/m 0,0 km/h (0 Bft) SO 215 0 min 70 W/m -6,7 C 10,1 C 0,0 km/h (0 Bft)
22/05/2019 07:45 8,3 C 35 % 1019,0 hPa 0,0 l/m 0,0 km/h (0 Bft) S-SE 162 0 min 44 W/m -6,2 C 8,3 C 0,0 km/h (0 Bft)
22/05/2019 06:45 7,5 C 39 % 1018,9 hPa 0,0 l/m 0,0 km/h (0 Bft) E-NE 59 0 min 26 W/m -5,5 C 7,5 C 0,0 km/h (0 Bft)
22/05/2019 05:45 7,4 C 40 % 1018,5 hPa 0,0 l/m 0,0 km/h (0 Bft) N 0 0 min 0 W/m -5,3 C 7,4 C 0,0 km/h (0 Bft)
22/05/2019 02:45 8,9 C 47 % 1017,9 hPa 0,0 l/m 0,0 km/h (0 Bft) N 0 0 min 0 W/m -1,8 C 8,9 C 0,0 km/h (0 Bft)
21/05/2019 23:45 12,1 C 45 % 1017,6 hPa 0,0 l/m 0,0 km/h (0 Bft) N 0 0 min 0 W/m 0,5 C 12,1 C 0,0 km/h (0 Bft)
21/05/2019 21:45 12,6 C 50 % 1016,9 hPa 0,0 l/m 0,0 km/h (0 Bft) E-NE 59 0 min 0 W/m 2,5 C 12,6 C 0,0 km/h (0 Bft)
21/05/2019 20:45 12,8 C 62 % 1016,3 hPa 1,0 l/m 0,0 km/h (0 Bft) E-NE 59 0 min 0 W/m 5,7 C 12,8 C 1,6 km/h (1 Bft)
21/05/2019 19:45 14,5 C 80 % 1015,9 hPa 1,4 l/m 1,6 km/h (1 Bft) N 360 5 min 19 W/m 11,1 C 14,5 C 12,9 km/h (3 Bft)
21/05/2019 18:45 17,6 C 66 % 1014,9 hPa 0,0 l/m 4,8 km/h (1 Bft) O-NO 302 60 min 283 W/m 11,2 C 17,6 C 17,7 km/h (3 Bft)
21/05/2019 17:45 17,9 C 63 % 1014,9 hPa 0,0 l/m 4,6 km/h (1 Bft) O-NO 284 60 min 229 W/m 10,8 C 17,9 C 19,3 km/h (3 Bft)
21/05/2019 16:45 17,6 C 68 % 1014,8 hPa 0,0 l/m 4,5 km/h (1 Bft) NO 306 60 min 654 W/m 11,6 C 17,6 C 17,7 km/h (3 Bft)
21/05/2019 15:45 16,5 C 72 % 1014,9 hPa 0,0 l/m 4,4 km/h (1 Bft) NO 312 60 min 283 W/m 11,4 C 16,5 C 20,9 km/h (4 Bft)
21/05/2019 14:45 15,6 C 77 % 1014,8 hPa 0,0 l/m 2,7 km/h (1 Bft) NO 323 60 min 418 W/m 11,6 C 15,6 C 14,5 km/h (3 Bft)
21/05/2019 13:45 14,3 C 80 % 1014,8 hPa 0,0 l/m 7,1 km/h (2 Bft) O 266 60 min 274 W/m 10,9 C 13,9 C 17,7 km/h (3 Bft)
21/05/2019 12:45 12,9 C 74 % 1014,6 hPa 0,0 l/m 1,8 km/h (1 Bft) O-SO 256 40 min 364 W/m 8,4 C 12,9 C 14,5 km/h (3 Bft)
21/05/2019 11:45 11,3 C 58 % 1014,5 hPa 0,0 l/m 0,5 km/h (0 Bft) O 263 0 min 95 W/m 3,3 C 11,3 C 3,2 km/h (1 Bft)
21/05/2019 11:00 10,9 C 51 % 1014,3 hPa 0,0 l/m 2,8 km/h (1 Bft) SO 227 0 min 54 W/m 1,2 C 10,9 C 16,1 km/h (3 Bft)
_ Min-Heure 05:15 09:10 11:00 - 19:50 - - - - 08:10 05:15 20:55
Minimum _ 6,8 C 29 % 1014,3 hPa - 0,0 km/h (0 Bft) - - - - -6,7 C 6,8 C 0,0 km/h (0 Bft)
_ Max-Heure 17:15 13:20 09:05 19:45 19:35 - - 12:10 15:15 15:15 17:45 15:20
Maximum _ 18,0 C 80 % 1019,4 hPa 0,8 l/m 15,5 km/h
N-NO (3 Bft)
- - 5 min 833 W/m 12,3 C 17,9 C 27,4 km/h
O-SO (4 Bft)
Moyenne _ 12,0 C 55 % 1016,7 hPa #2,6 l/m 2,0 km/h (1 Bft) O-SO - #1:40 h 226 W/m 3,0 C 11,8 C 6,9 km/h (2 Bft)